Latest Coastal Weather Observations for Red Rocks Point

IDW60701

Issued at 6:43 am WST Wednesday 31 August 2016 (issued every 10 minutes, with the page automatically refreshed every 10 minutes)

About coastal observations | Map of coastal stations | Coastal observations for WA | Marine services | Other Formats
Station Details ID: 011053 Name: RED ROCKS POINT Lat: -32.20 Lon: 127.53 Height: 3.1 m
Data from the previous 72 hours. | See also: Recent months at Red Rocks Point
Date/Time
WST
Temp
°C
Wind Pressure Rain since
9am
mm
Weather Cloud Vis
km
Sea
Height
m
Swell
Dir  Spd
kts
Gust
kts
hPa Trend Height
m
Period
s
Dir
31/06:30am 7.3 N 9 12 1018.3 - 0.4 - - - - - - -
31/06:00am 6.7 N 10 12 1018.1 - 0.4 - - - - - - -
31/05:30am 7.0 N 10 12 1017.7 - 0.4 - - - - - - -
31/05:00am 7.0 N 9 12 1017.5 - 0.4 - - - - - - -
31/04:30am 7.4 N 10 13 1017.4 - 0.4 - - - - - - -
31/04:00am 7.3 N 10 13 1017.3 - 0.2 - - - - - - -
31/03:30am 7.3 N 10 13 1017.4 - 0.2 - - - - - - -
31/03:00am 7.9 N 9 11 1017.3 - 0.2 - - - - - - -
31/02:30am 6.8 NE 3 5 1017.4 - 0.2 - - - - - - -
31/02:00am 7.1 N 3 6 1017.8 - 0.2 - - - - - - -
31/01:30am 7.6 N 7 9 1018.0 - 0.2 - - - - - - -
31/01:00am 7.7 N 9 11 1018.1 - 0.2 - - - - - - -
31/12:30am 8.2 NNW 7 9 1018.3 - 0.2 - - - - - - -
31/12:00am 7.4 NNW 9 11 1018.5 - 0.2 - - - - - - -
 
Date/Time
WST
Temp
°C
Wind Pressure Rain since
9am
mm
Weather Cloud Vis
km
Sea
Height
m
Swell
Dir  Spd
kts
Gust
kts
hPa Trend Height
m
Period
s
Dir
30/11:30pm 7.5 NNW 9 11 1018.6 - 0.2 - - - - - - -
30/11:00pm 7.8 NNW 8 9 1018.5 - 0.2 - - - - - - -
30/10:30pm 8.1 NNW 7 9 1018.6 - 0.2 - - - - - - -
30/10:00pm 8.6 NNW 5 5 1018.7 - 0.2 - - - - - - -
30/09:30pm 8.6 NW 4 5 1018.8 - 0.2 - - - - - - -
30/09:00pm 9.2 WSW 3 4 1018.8 - 0.2 - - - - - - -
30/08:30pm 11.8 SW 5 6 1018.8 - 0.2 - - - - - - -
30/08:00pm 12.5 SW 6 8 1018.7 - 0.2 - - - - - - -
30/07:30pm 12.5 SW 6 7 1018.5 - 0.2 - - - - - - -
30/07:00pm 12.3 SW 5 7 1018.2 - 0.2 - - - - - - -
30/06:30pm 12.6 WSW 5 7 1017.8 - 0.2 - - - - - - -
30/06:00pm 12.7 WSW 5 6 1017.4 - 0.2 - - - - - - -
30/05:30pm 13.1 WSW 5 7 1017.1 - 0.2 - - - - - - -
30/05:00pm 14.0 WSW 6 8 1016.8 - 0.2 - - - - - - -
30/04:30pm 15.1 WSW 7 10 1016.3 - 0.2 - - - - - - -
30/04:00pm 15.5 SW 8 13 1016.1 - 0.2 - - - - - - -
30/03:30pm 15.8 WSW 9 13 1015.9 - 0.2 - - - - - - -
30/03:00pm 15.4 WSW 12 17 1015.8 - 0.2 - - - - - - -
30/02:30pm 15.1 SW 13 19 1015.7 - 0.2 - - - - - - -
30/02:00pm 17.1 WSW 13 18 1015.4 - 0.2 - - - - - - -
30/01:30pm 16.6 WSW 12 18 1015.3 - 0.2 - - - - - - -
30/01:00pm 16.8 WSW 14 20 1015.0 - 0.2 - - - - - - -
30/12:30pm 16.3 WSW 14 20 1015.1 - 0.2 - - - - - - -
30/12:00pm 16.3 WSW 15 22 1015.1 - 0.2 - - - - - - -
30/11:30am 16.6 WSW 15 21 1015.3 - 0.2 - - - - - - -
30/11:00am 15.7 WSW 13 22 1015.3 - 0.2 - - - - - - -
30/10:30am 16.1 WSW 11 18 1015.3 - 0.2 - - - - - - -
30/10:00am 14.7 W 9 16 1015.3 - 0.2 - - - - - - -
30/09:30am 13.5 WSW 11 19 1015.2 - 0.2 - - - - - - -
30/09:00am 15.4 W 10 16 1014.7 - 1.2 - - - - - - -
30/08:30am 13.3 W 10 16 1014.5 - 1.2 - - - - - - -
30/08:00am 12.2 WNW 9 12 1014.3 - 1.2 - - - - - - -
30/07:30am 11.8 WNW 8 13 1013.9 - 1.2 - - - - - - -
30/07:00am 10.9 WNW 8 11 1013.6 - 1.0 - - - - - - -
30/06:30am 10.9 WNW 8 12 1013.1 - 1.0 - - - - - - -
30/06:00am 11.0 WNW 9 13 1012.7 - 1.0 Recent precip. - - - - - -
30/05:30am 10.9 WNW 9 14 1012.0 - 0.8 - - - - - - -
30/05:00am 11.2 WNW 12 17 1011.6 - 0.8 - - - - - - -
30/04:30am 11.3 WNW 9 16 1011.0 - 0.8 - - - - - - -
30/04:00am 11.2 WNW 10 14 1010.5 - 0.8 - - - - - - -
30/03:30am 11.4 WNW 10 15 1010.2 - 0.8 - - - - - - -
30/03:00am 11.4 WNW 10 15 1009.9 - 0.8 - - - - - - -
30/02:30am 11.4 WNW 9 14 1009.8 - 0.8 - - - - - - -
30/02:00am 11.7 WNW 9 15 1009.9 - 0.8 - - - - - - -
30/01:30am 12.0 WNW 10 17 1009.9 - 0.6 - - - - - - -
30/01:00am 12.0 WNW 10 17 1009.8 - 0.6 - - - - - - -
30/12:30am 12.0 WNW 9 14 1009.7 - 0.6 - - - - - - -
30/12:00am 12.1 WNW 10 16 1009.7 - 0.6 - - - - - - -
 
Date/Time
WST
Temp
°C
Wind Pressure Rain since
9am
mm
Weather Cloud Vis
km
Sea
Height
m
Swell
Dir  Spd
kts
Gust
kts
hPa Trend Height
m
Period
s
Dir
29/11:30pm 12.1 WNW 9 14 1009.6 - 0.6 - - - - - - -
29/11:00pm 12.1 WNW 9 14 1009.3 - 0.6 - - - - - - -
29/10:30pm 12.2 WNW 9 14 1009.2 - 0.6 - - - - - - -
29/10:00pm 12.2 WNW 9 13 1008.9 - 0.6 - - - - - - -
29/09:30pm 12.0 WNW 7 9 1008.9 - 0.6 - - - - - - -
29/09:00pm 12.0 WNW 7 11 1008.8 - 0.4 - - - - - - -
29/08:30pm 12.0 NW 7 11 1008.6 - 0.4 - - - - - - -
29/08:00pm 11.9 WNW 5 8 1008.3 - 0.4 - - - - - - -
29/07:30pm 12.2 NW 5 8 1007.9 - 0.4 - - - - - - -
29/07:00pm 12.5 NW 4 5 1007.6 - 0.4 - - - - - - -
29/06:30pm 13.1 WNW 4 7 1007.2 - 0.4 - - - - - - -
29/06:00pm 13.6 WNW 5 8 1006.9 - 0.2 Rain - - - - - -
29/05:30pm 14.3 W 9 15 1006.6 - 0.0 - - - - - - -
29/05:00pm 15.0 WSW 7 10 1005.9 - 0.0 - - - - - - -
29/04:30pm 15.2 WSW 7 11 1005.3 - 0.0 - - - - - - -
29/04:00pm 16.7 SW 9 13 1004.7 - 0.0 - - - - - - -
29/03:30pm 17.9 SW 7 11 1004.3 - 0.0 - - - - - - -
29/03:00pm 16.3 WSW 7 11 1004.3 - 0.0 - - - - - - -
29/02:30pm 16.1 SW 8 11 1004.2 - 0.0 - - - - - - -
29/02:00pm 16.4 SW 5 9 1004.1 - 0.0 - - - - - - -
29/01:30pm 17.2 W 10 19 1004.1 - 0.0 - - - - - - -
29/01:00pm 18.1 NW 10 20 1004.0 - 0.0 - - - - - - -
29/12:30pm 17.8 NW 11 21 1004.3 - 0.0 - - - - - - -
29/12:00pm 17.1 WNW 13 21 1004.4 - 0.0 - - - - - - -
29/11:30am 16.8 WNW 12 20 1004.8 - 0.0 - - - - - - -
29/11:00am 16.7 NW 12 21 1005.0 - 0.0 - - - - - - -
29/10:30am 16.4 NW 12 18 1005.3 - 0.0 - - - - - - -
29/10:00am 15.4 NW 10 15 1005.7 - 0.0 - - - - - - -
29/09:30am 14.5 NW 12 22 1005.6 - 0.0 - - - - - - -
29/09:00am 14.2 NW 13 21 1005.4 - 0.0 - - - - - - -
29/08:30am 14.2 NW 12 19 1005.5 - 0.0 - - - - - - -
29/08:00am 13.3 NW 12 21 1005.7 - 0.0 - - - - - - -
29/07:30am 13.2 NW 10 19 1005.5 - 0.0 - - - - - - -
29/07:00am 12.1 NW 9 13 1005.2 - 0.0 - - - - - - -
29/06:30am 10.8 NNW 7 11 1004.8 - 0.0 - - - - - - -
29/06:00am 10.6 NNW 7 11 1004.5 - 0.0 - - - - - - -
29/05:30am 11.0 NW 7 11 1004.3 - 0.0 - - - - - - -
29/05:00am 11.2 NW 7 11 1004.0 - 0.0 - - - - - - -
29/04:30am 11.4 NW 6 10 1003.8 - 0.0 - - - - - - -
29/04:00am 12.1 NW 7 10 1003.5 - 0.0 - - - - - - -
29/03:30am 12.8 NW 7 11 1003.2 - 0.0 - - - - - - -
29/03:00am 13.5 WNW 10 15 1002.9 - 0.0 - - - - - - -
29/02:30am 13.6 NW 9 16 1002.9 - 0.0 - - - - - - -
29/02:00am 13.8 NW 8 13 1003.0 - 0.0 - - - - - - -
29/01:30am 13.6 NW 8 12 1003.2 - 0.0 - - - - - - -
29/01:00am 12.8 NNW 7 9 1003.3 - 0.0 - - - - - - -
29/12:30am 12.8 NNW 6 9 1003.4 - 0.0 - - - - - - -
29/12:00am 13.6 NNW 8 11 1003.5 - 0.0 - - - - - - -
 
Date/Time
WST
Temp
°C
Wind Pressure Rain since
9am
mm
Weather Cloud Vis
km
Sea
Height
m
Swell
Dir  Spd
kts
Gust
kts
hPa Trend Height
m
Period
s
Dir
28/11:30pm 14.2 NNW 8 13 1003.6 - 0.0 - - - - - - -
28/11:00pm 14.1 NNW 8 13 1003.6 - 0.0 - - - - - - -
28/10:30pm 13.1 NNW 6 9 1003.7 - 0.0 - - - - - - -
28/10:00pm 13.0 N 5 7 1003.9 - 0.0 - - - - - - -
28/09:30pm 14.0 NNW 7 10 1004.2 - 0.0 - - - - - - -
28/09:00pm 13.6 NNW 7 11 1004.4 - 0.0 - - - - - - -
28/08:30pm 13.5 N 6 8 1004.5 - 0.0 - - - - - - -
28/08:00pm 13.1 N 5 6 1004.4 - 0.0 - - - - - - -
28/07:30pm 14.3 NNW 5 7 1004.2 - 0.0 - - - - - - -
28/07:00pm 15.7 NNW 6 8 1004.0 - 0.0 - - - - - - -
28/06:30pm 16.0 NNW 7 9 1003.7 - 0.0 - - - - - - -
28/06:00pm 16.7 NW 8 16 1003.7 - 0.0 - - - - - - -
28/05:30pm 17.1 NW 7 14 1003.3 - 0.0 - - - - - - -
28/05:00pm 17.9 NW 9 18 1002.7 - 0.0 - - - - - - -
28/04:30pm 18.1 NW 11 19 1002.4 - 0.0 - - - - - - -
28/04:00pm 18.3 NW 13 23 1002.0 - 0.0 - - - - - - -
28/03:30pm 18.9 NW 12 18 1001.6 - 0.0 - - - - - - -
28/03:00pm 19.0 WNW 13 27 1001.3 - 0.0 - - - - - - -
28/02:30pm 19.6 NW 13 22 1001.0 - 0.0 - - - - - - -
28/02:10pm 19.7 NW 16 27 1000.9 - 0.0 - - - - - - -
28/02:00pm 19.8 NW 14 21 1000.9 - 0.0 - - - - - - -
28/01:30pm 21.1 NW 16 24 1000.7 - 0.0 - - - - - - -
28/01:00pm 21.1 NW 15 27 1000.8 - 0.0 - - - - - - -
28/12:30pm 20.9 NW 14 22 1000.9 - 0.0 - - - - - - -
28/12:00pm 20.3 NW 14 22 1001.1 - 0.0 - - - - - - -
28/11:45am 21.0 NNW 15 27 1001.2 - 0.0 - - - - - - -
28/11:30am 21.1 NW 13 20 1001.3 - 0.0 - - - - - - -
28/11:00am 20.5 NW 16 23 1001.8 - 0.0 - - - - - - -
28/10:30am 19.0 NW 13 22 1002.0 - 0.0 - - - - - - -
28/10:23am 18.7 NW 15 25 1002.0 - 0.0 - - - - - - -
28/10:00am 20.1 NNW 13 19 1002.1 - 0.0 - - - - - - -
28/09:30am 19.3 NW 13 23 1002.7 - 0.0 - - - - - - -
28/09:00am 19.2 NW 10 19 1002.7 - 1.0 - - - - - - -
28/08:30am 18.0 NW 13 18 1002.9 - 1.0 - - - - - - -
28/08:00am 17.0 NW 10 16 1003.1 - 1.0 - - - - - - -
28/07:30am 15.9 NNW 9 15 1003.3 - 1.0 - - - - - - -
28/07:00am 14.4 NNW 9 15 1003.1 - 1.0 - - - - - - -

Other Formats:

Comma delimited format used in spreadsheet applications
http://www.bom.gov.au/fwo/IDW60701/IDW60701.94644.axf

JavaScript Object Notation format (JSON) in row-major order
http://www.bom.gov.au/fwo/IDW60701/IDW60701.94644.json